sensor_id;sensor_type;location;lat;lon;timestamp;P1;durP1;ratioP1;P2;durP2;ratioP2
64826;SDS011;51265;53.972;12.286;2024-01-11T00:00:48;17.33;;;10.23;;
64826;SDS011;51265;53.972;12.286;2024-01-11T00:03:15;17.17;;;10.30;;
64826;SDS011;51265;53.972;12.286;2024-01-11T00:05:41;16.42;;;10.30;;
64826;SDS011;51265;53.972;12.286;2024-01-11T00:08:07;16.73;;;10.70;;
64826;SDS011;51265;53.972;12.286;2024-01-11T00:10:33;18.52;;;11.63;;
64826;SDS011;51265;53.972;12.286;2024-01-11T00:13:00;18.23;;;10.82;;
64826;SDS011;51265;53.972;12.286;2024-01-11T00:15:26;16.85;;;10.27;;
64826;SDS011;51265;53.972;12.286;2024-01-11T00:17:52;18.63;;;10.95;;
64826;SDS011;51265;53.972;12.286;2024-01-11T00:20:18;19.80;;;11.38;;
64826;SDS011;51265;53.972;12.286;2024-01-11T00:22:44;18.70;;;11.60;;
64826;SDS011;51265;53.972;12.286;2024-01-11T00:25:10;17.60;;;10.68;;
64826;SDS011;51265;53.972;12.286;2024-01-11T00:27:37;19.75;;;11.82;;
64826;SDS011;51265;53.972;12.286;2024-01-11T00:30:03;20.73;;;11.82;;
64826;SDS011;51265;53.972;12.286;2024-01-11T00:32:31;22.10;;;11.70;;
64826;SDS011;51265;53.972;12.286;2024-01-11T00:34:57;21.52;;;11.52;;
64826;SDS011;51265;53.972;12.286;2024-01-11T00:37:23;20.45;;;11.25;;
64826;SDS011;51265;53.972;12.286;2024-01-11T00:39:51;20.98;;;12.75;;
64826;SDS011;51265;53.972;12.286;2024-01-11T00:42:17;21.52;;;11.48;;
64826;SDS011;51265;53.972;12.286;2024-01-11T00:44:44;21.90;;;12.15;;
64826;SDS011;51265;53.972;12.286;2024-01-11T00:47:11;19.45;;;12.18;;
64826;SDS011;51265;53.972;12.286;2024-01-11T00:49:37;21.23;;;11.63;;
64826;SDS011;51265;53.972;12.286;2024-01-11T00:52:03;20.15;;;11.27;;
64826;SDS011;51265;53.972;12.286;2024-01-11T00:54:29;20.05;;;11.30;;
64826;SDS011;51265;53.972;12.286;2024-01-11T00:56:56;20.33;;;11.40;;
64826;SDS011;51265;53.972;12.286;2024-01-11T00:59:22;20.60;;;12.13;;
64826;SDS011;51265;53.972;12.286;2024-01-11T01:01:49;19.48;;;12.02;;
64826;SDS011;51265;53.972;12.286;2024-01-11T01:04:16;19.98;;;11.52;;
64826;SDS011;51265;53.972;12.286;2024-01-11T01:06:42;21.75;;;12.02;;
64826;SDS011;51265;53.972;12.286;2024-01-11T01:09:09;19.92;;;11.95;;
64826;SDS011;51265;53.972;12.286;2024-01-11T01:11:35;21.88;;;11.55;;
64826;SDS011;51265;53.972;12.286;2024-01-11T01:14:01;23.08;;;12.05;;
64826;SDS011;51265;53.972;12.286;2024-01-11T01:16:27;21.88;;;12.13;;
64826;SDS011;51265;53.972;12.286;2024-01-11T01:18:54;18.90;;;11.75;;
64826;SDS011;51265;53.972;12.286;2024-01-11T01:21:20;20.90;;;10.95;;
64826;SDS011;51265;53.972;12.286;2024-01-11T01:23:46;23.77;;;13.63;;
64826;SDS011;51265;53.972;12.286;2024-01-11T01:26:12;22.83;;;12.98;;
64826;SDS011;51265;53.972;12.286;2024-01-11T01:28:38;24.15;;;13.20;;
64826;SDS011;51265;53.972;12.286;2024-01-11T01:31:05;23.02;;;13.07;;
64826;SDS011;51265;53.972;12.286;2024-01-11T01:33:32;24.08;;;13.60;;
64826;SDS011;51265;53.972;12.286;2024-01-11T01:35:58;22.63;;;13.07;;
64826;SDS011;51265;53.972;12.286;2024-01-11T01:38:24;26.30;;;13.73;;
64826;SDS011;51265;53.972;12.286;2024-01-11T01:40:50;25.75;;;14.10;;
64826;SDS011;51265;53.972;12.286;2024-01-11T01:43:16;23.38;;;12.77;;
64826;SDS011;51265;53.972;12.286;2024-01-11T01:45:42;24.42;;;13.45;;
64826;SDS011;51265;53.972;12.286;2024-01-11T01:48:09;23.95;;;12.80;;
64826;SDS011;51265;53.972;12.286;2024-01-11T01:50:35;23.92;;;14.40;;
64826;SDS011;51265;53.972;12.286;2024-01-11T01:53:01;26.05;;;14.68;;
64826;SDS011;51265;53.972;12.286;2024-01-11T01:55:28;26.88;;;13.13;;
64826;SDS011;51265;53.972;12.286;2024-01-11T01:57:55;23.95;;;13.38;;
64826;SDS011;51265;53.972;12.286;2024-01-11T02:00:24;24.23;;;13.88;;
64826;SDS011;51265;53.972;12.286;2024-01-11T02:02:50;28.13;;;15.77;;
64826;SDS011;51265;53.972;12.286;2024-01-11T02:05:18;26.70;;;14.38;;
64826;SDS011;51265;53.972;12.286;2024-01-11T02:07:44;26.38;;;15.43;;
64826;SDS011;51265;53.972;12.286;2024-01-11T02:10:11;27.70;;;15.25;;
64826;SDS011;51265;53.972;12.286;2024-01-11T02:12:38;27.48;;;14.77;;
64826;SDS011;51265;53.972;12.286;2024-01-11T02:15:05;26.60;;;14.60;;
64826;SDS011;51265;53.972;12.286;2024-01-11T02:17:32;27.08;;;14.50;;
64826;SDS011;51265;53.972;12.286;2024-01-11T02:19:59;26.77;;;14.23;;
64826;SDS011;51265;53.972;12.286;2024-01-11T02:22:29;25.13;;;13.75;;
64826;SDS011;51265;53.972;12.286;2024-01-11T02:25:01;28.20;;;15.75;;
64826;SDS011;51265;53.972;12.286;2024-01-11T02:27:28;27.35;;;14.50;;
64826;SDS011;51265;53.972;12.286;2024-01-11T02:29:54;24.70;;;13.73;;
64826;SDS011;51265;53.972;12.286;2024-01-11T02:32:20;24.50;;;13.85;;
64826;SDS011;51265;53.972;12.286;2024-01-11T02:34:46;25.13;;;12.13;;
64826;SDS011;51265;53.972;12.286;2024-01-11T02:37:13;21.48;;;12.48;;
64826;SDS011;51265;53.972;12.286;2024-01-11T02:39:39;20.90;;;12.10;;
64826;SDS011;51265;53.972;12.286;2024-01-11T02:42:06;22.83;;;12.77;;
64826;SDS011;51265;53.972;12.286;2024-01-11T02:44:32;21.20;;;12.65;;
64826;SDS011;51265;53.972;12.286;2024-01-11T02:46:58;21.95;;;12.43;;
64826;SDS011;51265;53.972;12.286;2024-01-11T02:49:24;23.02;;;13.45;;
64826;SDS011;51265;53.972;12.286;2024-01-11T02:51:50;21.25;;;12.23;;
64826;SDS011;51265;53.972;12.286;2024-01-11T02:54:16;24.60;;;13.38;;
64826;SDS011;51265;53.972;12.286;2024-01-11T02:56:43;22.88;;;12.23;;
64826;SDS011;51265;53.972;12.286;2024-01-11T02:59:09;21.08;;;12.93;;
64826;SDS011;51265;53.972;12.286;2024-01-11T03:01:35;23.73;;;11.82;;
64826;SDS011;51265;53.972;12.286;2024-01-11T03:04:01;21.15;;;12.57;;
64826;SDS011;51265;53.972;12.286;2024-01-11T03:06:28;20.98;;;11.73;;
64826;SDS011;51265;53.972;12.286;2024-01-11T03:08:55;20.25;;;11.93;;
64826;SDS011;51265;53.972;12.286;2024-01-11T03:11:21;21.13;;;12.18;;
64826;SDS011;51265;53.972;12.286;2024-01-11T03:13:47;23.20;;;13.35;;
64826;SDS011;51265;53.972;12.286;2024-01-11T03:16:13;21.48;;;12.25;;
64826;SDS011;51265;53.972;12.286;2024-01-11T03:18:39;20.65;;;12.25;;
64826;SDS011;51265;53.972;12.286;2024-01-11T03:21:06;23.52;;;11.57;;
64826;SDS011;51265;53.972;12.286;2024-01-11T03:23:32;23.25;;;12.15;;
64826;SDS011;51265;53.972;12.286;2024-01-11T03:25:58;24.58;;;13.60;;
64826;SDS011;51265;53.972;12.286;2024-01-11T03:28:24;23.55;;;13.20;;
64826;SDS011;51265;53.972;12.286;2024-01-11T03:30:50;24.55;;;12.48;;
64826;SDS011;51265;53.972;12.286;2024-01-11T03:33:16;21.08;;;12.60;;
64826;SDS011;51265;53.972;12.286;2024-01-11T03:35:42;25.67;;;13.10;;
64826;SDS011;51265;53.972;12.286;2024-01-11T03:38:10;22.55;;;12.48;;
64826;SDS011;51265;53.972;12.286;2024-01-11T03:40:36;23.67;;;13.13;;
64826;SDS011;51265;53.972;12.286;2024-01-11T03:43:02;23.67;;;12.88;;
64826;SDS011;51265;53.972;12.286;2024-01-11T03:45:28;22.35;;;12.55;;
64826;SDS011;51265;53.972;12.286;2024-01-11T03:47:54;22.73;;;12.45;;
64826;SDS011;51265;53.972;12.286;2024-01-11T03:50:20;25.52;;;13.63;;
64826;SDS011;51265;53.972;12.286;2024-01-11T03:52:47;25.42;;;14.60;;
64826;SDS011;51265;53.972;12.286;2024-01-11T03:55:13;24.15;;;13.30;;
64826;SDS011;51265;53.972;12.286;2024-01-11T03:57:39;21.80;;;12.80;;
64826;SDS011;51265;53.972;12.286;2024-01-11T04:00:05;24.58;;;12.63;;
64826;SDS011;51265;53.972;12.286;2024-01-11T04:02:32;21.00;;;12.30;;
64826;SDS011;51265;53.972;12.286;2024-01-11T04:04:58;29.92;;;12.15;;
64826;SDS011;51265;53.972;12.286;2024-01-11T04:07:24;23.90;;;12.88;;
64826;SDS011;51265;53.972;12.286;2024-01-11T04:09:52;22.85;;;13.68;;
64826;SDS011;51265;53.972;12.286;2024-01-11T04:12:18;22.13;;;12.32;;
64826;SDS011;51265;53.972;12.286;2024-01-11T04:14:44;22.23;;;12.07;;
64826;SDS011;51265;53.972;12.286;2024-01-11T04:17:10;23.08;;;12.20;;
64826;SDS011;51265;53.972;12.286;2024-01-11T04:19:36;23.13;;;12.20;;
64826;SDS011;51265;53.972;12.286;2024-01-11T04:22:02;20.25;;;11.88;;
64826;SDS011;51265;53.972;12.286;2024-01-11T04:24:28;22.52;;;12.70;;
64826;SDS011;51265;53.972;12.286;2024-01-11T04:26:55;27.33;;;13.52;;
64826;SDS011;51265;53.972;12.286;2024-01-11T04:29:21;23.27;;;12.75;;
64826;SDS011;51265;53.972;12.286;2024-01-11T04:31:47;24.67;;;13.52;;
64826;SDS011;51265;53.972;12.286;2024-01-11T04:34:13;25.08;;;13.60;;
64826;SDS011;51265;53.972;12.286;2024-01-11T04:36:39;23.90;;;13.13;;
64826;SDS011;51265;53.972;12.286;2024-01-11T04:39:05;22.13;;;12.15;;
64826;SDS011;51265;53.972;12.286;2024-01-11T04:41:35;22.95;;;12.93;;
64826;SDS011;51265;53.972;12.286;2024-01-11T04:44:02;23.67;;;13.02;;
64826;SDS011;51265;53.972;12.286;2024-01-11T04:46:31;24.80;;;14.25;;
64826;SDS011;51265;53.972;12.286;2024-01-11T04:48:57;28.52;;;14.18;;
64826;SDS011;51265;53.972;12.286;2024-01-11T04:51:24;25.40;;;12.38;;
64826;SDS011;51265;53.972;12.286;2024-01-11T04:53:50;23.00;;;12.65;;
64826;SDS011;51265;53.972;12.286;2024-01-11T04:56:16;22.50;;;11.88;;
64826;SDS011;51265;53.972;12.286;2024-01-11T04:58:43;23.27;;;12.05;;
64826;SDS011;51265;53.972;12.286;2024-01-11T05:01:16;22.23;;;11.63;;
64826;SDS011;51265;53.972;12.286;2024-01-11T05:03:44;24.48;;;11.15;;
64826;SDS011;51265;53.972;12.286;2024-01-11T05:06:15;22.30;;;12.75;;
64826;SDS011;51265;53.972;12.286;2024-01-11T05:08:43;22.25;;;12.05;;
64826;SDS011;51265;53.972;12.286;2024-01-11T05:13:43;23.58;;;11.68;;
64826;SDS011;51265;53.972;12.286;2024-01-11T05:18:48;20.25;;;11.45;;
64826;SDS011;51265;53.972;12.286;2024-01-11T05:21:15;25.95;;;12.75;;
64826;SDS011;51265;53.972;12.286;2024-01-11T05:23:41;25.38;;;13.27;;
64826;SDS011;51265;53.972;12.286;2024-01-11T05:26:08;22.73;;;13.38;;
64826;SDS011;51265;53.972;12.286;2024-01-11T05:28:35;25.08;;;14.30;;
64826;SDS011;51265;53.972;12.286;2024-01-11T05:31:01;21.08;;;11.57;;
64826;SDS011;51265;53.972;12.286;2024-01-11T05:33:27;26.08;;;13.88;;
64826;SDS011;51265;53.972;12.286;2024-01-11T05:35:54;24.08;;;13.35;;
64826;SDS011;51265;53.972;12.286;2024-01-11T05:38:20;19.52;;;11.48;;
64826;SDS011;51265;53.972;12.286;2024-01-11T05:40:46;22.83;;;11.20;;
64826;SDS011;51265;53.972;12.286;2024-01-11T05:43:12;24.92;;;12.20;;
64826;SDS011;51265;53.972;12.286;2024-01-11T05:45:39;22.80;;;11.25;;
64826;SDS011;51265;53.972;12.286;2024-01-11T05:48:05;21.65;;;11.52;;
64826;SDS011;51265;53.972;12.286;2024-01-11T05:50:31;22.88;;;12.40;;
64826;SDS011;51265;53.972;12.286;2024-01-11T05:52:58;20.50;;;10.70;;
64826;SDS011;51265;53.972;12.286;2024-01-11T05:55:24;23.70;;;12.77;;
64826;SDS011;51265;53.972;12.286;2024-01-11T05:57:50;21.70;;;11.27;;
64826;SDS011;51265;53.972;12.286;2024-01-11T06:00:16;22.05;;;10.95;;
64826;SDS011;51265;53.972;12.286;2024-01-11T06:02:43;19.45;;;10.80;;
64826;SDS011;51265;53.972;12.286;2024-01-11T06:05:09;18.50;;;10.32;;
64826;SDS011;51265;53.972;12.286;2024-01-11T06:07:36;17.75;;;10.57;;
64826;SDS011;51265;53.972;12.286;2024-01-11T06:10:02;17.08;;;9.90;;
64826;SDS011;51265;53.972;12.286;2024-01-11T06:12:30;21.52;;;11.68;;
64826;SDS011;51265;53.972;12.286;2024-01-11T06:14:56;17.58;;;9.93;;
64826;SDS011;51265;53.972;12.286;2024-01-11T06:17:23;16.73;;;9.15;;
64826;SDS011;51265;53.972;12.286;2024-01-11T06:19:49;17.50;;;10.00;;
64826;SDS011;51265;53.972;12.286;2024-01-11T06:22:16;15.82;;;9.52;;
64826;SDS011;51265;53.972;12.286;2024-01-11T06:24:42;19.67;;;10.20;;
64826;SDS011;51265;53.972;12.286;2024-01-11T06:27:08;16.98;;;9.10;;
64826;SDS011;51265;53.972;12.286;2024-01-11T06:29:34;16.42;;;8.60;;
64826;SDS011;51265;53.972;12.286;2024-01-11T06:32:01;15.30;;;8.70;;
64826;SDS011;51265;53.972;12.286;2024-01-11T06:34:28;16.08;;;8.35;;
64826;SDS011;51265;53.972;12.286;2024-01-11T06:36:54;14.85;;;8.73;;
64826;SDS011;51265;53.972;12.286;2024-01-11T06:39:21;17.90;;;9.55;;
64826;SDS011;51265;53.972;12.286;2024-01-11T06:41:47;18.70;;;9.95;;
64826;SDS011;51265;53.972;12.286;2024-01-11T06:44:13;14.98;;;9.02;;
64826;SDS011;51265;53.972;12.286;2024-01-11T06:46:39;17.20;;;9.43;;
64826;SDS011;51265;53.972;12.286;2024-01-11T06:49:07;16.88;;;9.57;;
64826;SDS011;51265;53.972;12.286;2024-01-11T06:51:34;19.55;;;8.90;;
64826;SDS011;51265;53.972;12.286;2024-01-11T06:54:00;19.17;;;9.75;;
64826;SDS011;51265;53.972;12.286;2024-01-11T06:56:27;18.23;;;10.10;;
64826;SDS011;51265;53.972;12.286;2024-01-11T06:58:54;18.92;;;9.30;;
64826;SDS011;51265;53.972;12.286;2024-01-11T07:01:20;20.42;;;10.70;;
64826;SDS011;51265;53.972;12.286;2024-01-11T07:03:47;17.15;;;9.93;;
64826;SDS011;51265;53.972;12.286;2024-01-11T07:06:13;20.83;;;10.52;;
64826;SDS011;51265;53.972;12.286;2024-01-11T07:08:39;17.60;;;9.38;;
64826;SDS011;51265;53.972;12.286;2024-01-11T07:11:05;17.92;;;9.95;;
64826;SDS011;51265;53.972;12.286;2024-01-11T07:13:31;19.75;;;10.50;;
64826;SDS011;51265;53.972;12.286;2024-01-11T07:15:58;18.13;;;9.75;;
64826;SDS011;51265;53.972;12.286;2024-01-11T07:18:25;18.73;;;10.07;;
64826;SDS011;51265;53.972;12.286;2024-01-11T07:20:51;21.90;;;10.23;;
64826;SDS011;51265;53.972;12.286;2024-01-11T07:23:18;21.38;;;10.35;;
64826;SDS011;51265;53.972;12.286;2024-01-11T07:25:45;19.65;;;8.75;;
64826;SDS011;51265;53.972;12.286;2024-01-11T07:28:11;21.30;;;9.77;;
64826;SDS011;51265;53.972;12.286;2024-01-11T07:30:37;21.05;;;9.05;;
64826;SDS011;51265;53.972;12.286;2024-01-11T07:33:03;22.95;;;9.60;;
64826;SDS011;51265;53.972;12.286;2024-01-11T07:35:30;21.95;;;9.82;;
64826;SDS011;51265;53.972;12.286;2024-01-11T07:37:57;22.60;;;9.65;;
64826;SDS011;51265;53.972;12.286;2024-01-11T07:40:23;19.38;;;8.52;;
64826;SDS011;51265;53.972;12.286;2024-01-11T07:42:50;18.45;;;9.50;;
64826;SDS011;51265;53.972;12.286;2024-01-11T07:45:16;20.88;;;8.38;;
64826;SDS011;51265;53.972;12.286;2024-01-11T07:47:42;26.58;;;10.50;;
64826;SDS011;51265;53.972;12.286;2024-01-11T07:50:09;21.00;;;8.27;;
64826;SDS011;51265;53.972;12.286;2024-01-11T07:52:38;19.13;;;8.88;;
64826;SDS011;51265;53.972;12.286;2024-01-11T07:55:07;19.85;;;8.60;;
64826;SDS011;51265;53.972;12.286;2024-01-11T07:57:36;20.33;;;8.00;;
64826;SDS011;51265;53.972;12.286;2024-01-11T08:00:03;22.65;;;8.10;;
64826;SDS011;51265;53.972;12.286;2024-01-11T08:02:38;20.58;;;8.90;;
64826;SDS011;51265;53.972;12.286;2024-01-11T08:05:05;19.10;;;7.88;;
64826;SDS011;51265;53.972;12.286;2024-01-11T08:07:31;18.83;;;8.18;;
64826;SDS011;51265;53.972;12.286;2024-01-11T08:09:57;20.15;;;8.55;;
64826;SDS011;51265;53.972;12.286;2024-01-11T08:12:23;17.05;;;7.68;;
64826;SDS011;51265;53.972;12.286;2024-01-11T08:14:49;15.13;;;7.13;;
64826;SDS011;51265;53.972;12.286;2024-01-11T08:17:16;18.15;;;7.75;;
64826;SDS011;51265;53.972;12.286;2024-01-11T08:19:42;16.52;;;7.38;;
64826;SDS011;51265;53.972;12.286;2024-01-11T08:22:09;16.67;;;7.55;;
64826;SDS011;51265;53.972;12.286;2024-01-11T08:24:36;16.73;;;7.28;;
64826;SDS011;51265;53.972;12.286;2024-01-11T08:27:04;17.38;;;7.72;;
64826;SDS011;51265;53.972;12.286;2024-01-11T08:29:30;15.20;;;7.97;;
64826;SDS011;51265;53.972;12.286;2024-01-11T08:31:56;16.70;;;7.38;;
64826;SDS011;51265;53.972;12.286;2024-01-11T08:34:22;15.40;;;8.00;;
64826;SDS011;51265;53.972;12.286;2024-01-11T08:36:49;19.33;;;8.23;;
64826;SDS011;51265;53.972;12.286;2024-01-11T08:39:15;17.05;;;8.27;;
64826;SDS011;51265;53.972;12.286;2024-01-11T08:41:42;19.38;;;8.32;;
64826;SDS011;51265;53.972;12.286;2024-01-11T08:44:09;16.65;;;8.10;;
64826;SDS011;51265;53.972;12.286;2024-01-11T08:46:35;18.55;;;8.02;;
64826;SDS011;51265;53.972;12.286;2024-01-11T08:49:01;19.35;;;7.95;;
64826;SDS011;51265;53.972;12.286;2024-01-11T08:51:31;14.48;;;7.63;;
64826;SDS011;51265;53.972;12.286;2024-01-11T08:53:58;16.95;;;8.40;;
64826;SDS011;51265;53.972;12.286;2024-01-11T08:56:24;16.48;;;8.45;;
64826;SDS011;51265;53.972;12.286;2024-01-11T08:58:51;16.77;;;7.82;;
64826;SDS011;51265;53.972;12.286;2024-01-11T09:01:17;18.92;;;8.63;;
64826;SDS011;51265;53.972;12.286;2024-01-11T09:03:48;16.92;;;8.82;;
64826;SDS011;51265;53.972;12.286;2024-01-11T09:06:14;19.30;;;8.45;;
64826;SDS011;51265;53.972;12.286;2024-01-11T09:08:40;19.48;;;8.07;;
64826;SDS011;51265;53.972;12.286;2024-01-11T09:11:07;15.57;;;8.57;;
64826;SDS011;51265;53.972;12.286;2024-01-11T09:13:36;19.50;;;8.75;;
64826;SDS011;51265;53.972;12.286;2024-01-11T09:16:02;20.10;;;9.13;;
64826;SDS011;51265;53.972;12.286;2024-01-11T09:18:28;20.38;;;8.65;;
64826;SDS011;51265;53.972;12.286;2024-01-11T09:20:55;18.35;;;9.15;;
64826;SDS011;51265;53.972;12.286;2024-01-11T09:23:22;18.00;;;8.80;;
64826;SDS011;51265;53.972;12.286;2024-01-11T09:25:48;18.00;;;8.82;;
64826;SDS011;51265;53.972;12.286;2024-01-11T09:28:14;19.38;;;9.68;;
64826;SDS011;51265;53.972;12.286;2024-01-11T09:30:41;17.40;;;9.02;;
64826;SDS011;51265;53.972;12.286;2024-01-11T09:33:07;17.20;;;8.70;;
64826;SDS011;51265;53.972;12.286;2024-01-11T09:35:33;16.90;;;8.93;;
64826;SDS011;51265;53.972;12.286;2024-01-11T09:37:59;13.13;;;8.45;;
64826;SDS011;51265;53.972;12.286;2024-01-11T09:40:28;16.88;;;8.68;;
64826;SDS011;51265;53.972;12.286;2024-01-11T09:42:54;18.33;;;9.10;;
64826;SDS011;51265;53.972;12.286;2024-01-11T09:45:20;15.38;;;8.18;;
64826;SDS011;51265;53.972;12.286;2024-01-11T09:47:46;14.98;;;7.85;;
64826;SDS011;51265;53.972;12.286;2024-01-11T09:50:16;15.07;;;7.60;;
64826;SDS011;51265;53.972;12.286;2024-01-11T09:52:47;15.90;;;7.55;;
64826;SDS011;51265;53.972;12.286;2024-01-11T09:55:15;16.00;;;8.00;;
64826;SDS011;51265;53.972;12.286;2024-01-11T09:57:45;15.23;;;8.25;;
64826;SDS011;51265;53.972;12.286;2024-01-11T10:00:13;12.25;;;7.30;;
64826;SDS011;51265;53.972;12.286;2024-01-11T10:02:45;13.68;;;7.10;;
64826;SDS011;51265;53.972;12.286;2024-01-11T10:05:12;13.65;;;6.53;;
64826;SDS011;51265;53.972;12.286;2024-01-11T10:07:42;12.48;;;7.35;;
64826;SDS011;51265;53.972;12.286;2024-01-11T10:10:08;12.70;;;6.50;;
64826;SDS011;51265;53.972;12.286;2024-01-11T10:12:35;13.57;;;7.07;;
64826;SDS011;51265;53.972;12.286;2024-01-11T10:15:05;11.30;;;6.65;;
64826;SDS011;51265;53.972;12.286;2024-01-11T10:17:36;9.10;;;5.45;;
64826;SDS011;51265;53.972;12.286;2024-01-11T10:20:06;11.10;;;5.57;;
64826;SDS011;51265;53.972;12.286;2024-01-11T10:22:36;7.07;;;4.88;;
64826;SDS011;51265;53.972;12.286;2024-01-11T10:27:42;8.77;;;5.45;;
64826;SDS011;51265;53.972;12.286;2024-01-11T10:30:10;7.90;;;4.50;;
64826;SDS011;51265;53.972;12.286;2024-01-11T10:32:39;6.95;;;4.10;;
64826;SDS011;51265;53.972;12.286;2024-01-11T10:35:05;8.00;;;3.97;;
64826;SDS011;51265;53.972;12.286;2024-01-11T10:37:32;8.20;;;4.13;;
64826;SDS011;51265;53.972;12.286;2024-01-11T10:40:02;6.72;;;3.85;;
64826;SDS011;51265;53.972;12.286;2024-01-11T10:42:31;7.20;;;3.75;;
64826;SDS011;51265;53.972;12.286;2024-01-11T10:44:58;5.68;;;3.72;;
64826;SDS011;51265;53.972;12.286;2024-01-11T10:47:25;4.70;;;3.42;;
64826;SDS011;51265;53.972;12.286;2024-01-11T10:49:56;4.47;;;3.65;;
64826;SDS011;51265;53.972;12.286;2024-01-11T10:52:24;5.38;;;3.33;;
64826;SDS011;51265;53.972;12.286;2024-01-11T10:54:59;6.93;;;3.72;;
64826;SDS011;51265;53.972;12.286;2024-01-11T10:57:27;5.75;;;3.55;;
64826;SDS011;51265;53.972;12.286;2024-01-11T10:59:55;6.70;;;4.03;;
64826;SDS011;51265;53.972;12.286;2024-01-11T11:02:21;6.63;;;4.32;;
64826;SDS011;51265;53.972;12.286;2024-01-11T11:04:48;5.80;;;3.80;;
64826;SDS011;51265;53.972;12.286;2024-01-11T11:07:17;8.65;;;4.13;;
64826;SDS011;51265;53.972;12.286;2024-01-11T11:09:44;6.40;;;3.65;;
64826;SDS011;51265;53.972;12.286;2024-01-11T11:12:12;4.78;;;3.78;;
64826;SDS011;51265;53.972;12.286;2024-01-11T11:14:39;5.75;;;3.58;;
64826;SDS011;51265;53.972;12.286;2024-01-11T11:17:06;4.10;;;3.05;;
64826;SDS011;51265;53.972;12.286;2024-01-11T11:19:33;4.68;;;3.40;;
64826;SDS011;51265;53.972;12.286;2024-01-11T11:21:59;6.55;;;3.88;;
64826;SDS011;51265;53.972;12.286;2024-01-11T11:24:30;6.05;;;3.55;;
64826;SDS011;51265;53.972;12.286;2024-01-11T11:26:56;5.00;;;3.40;;
64826;SDS011;51265;53.972;12.286;2024-01-11T11:29:23;4.80;;;3.33;;
64826;SDS011;51265;53.972;12.286;2024-01-11T11:31:49;9.80;;;4.30;;
64826;SDS011;51265;53.972;12.286;2024-01-11T11:37:11;8.38;;;4.00;;
64826;SDS011;51265;53.972;12.286;2024-01-11T11:39:37;4.88;;;3.38;;
64826;SDS011;51265;53.972;12.286;2024-01-11T11:42:04;6.57;;;4.00;;
64826;SDS011;51265;53.972;12.286;2024-01-11T11:44:31;7.05;;;3.55;;
64826;SDS011;51265;53.972;12.286;2024-01-11T11:47:17;3.75;;;2.75;;
64826;SDS011;51265;53.972;12.286;2024-01-11T11:50:09;4.65;;;3.45;;
64826;SDS011;51265;53.972;12.286;2024-01-11T11:52:39;8.00;;;3.35;;
64826;SDS011;51265;53.972;12.286;2024-01-11T11:55:08;5.82;;;3.13;;
64826;SDS011;51265;53.972;12.286;2024-01-11T11:57:34;6.57;;;3.60;;
64826;SDS011;51265;53.972;12.286;2024-01-11T12:00:02;6.15;;;3.22;;
64826;SDS011;51265;53.972;12.286;2024-01-11T12:02:37;8.00;;;3.38;;
64826;SDS011;51265;53.972;12.286;2024-01-11T12:05:05;5.05;;;3.20;;
64826;SDS011;51265;53.972;12.286;2024-01-11T12:07:31;4.80;;;3.20;;
64826;SDS011;51265;53.972;12.286;2024-01-11T12:09:57;5.65;;;3.25;;
64826;SDS011;51265;53.972;12.286;2024-01-11T12:12:24;3.50;;;2.60;;
64826;SDS011;51265;53.972;12.286;2024-01-11T12:14:50;5.72;;;3.10;;
64826;SDS011;51265;53.972;12.286;2024-01-11T12:17:16;5.43;;;3.28;;
64826;SDS011;51265;53.972;12.286;2024-01-11T12:19:42;4.03;;;2.80;;
64826;SDS011;51265;53.972;12.286;2024-01-11T12:22:09;4.30;;;3.03;;
64826;SDS011;51265;53.972;12.286;2024-01-11T12:24:35;5.20;;;3.60;;
64826;SDS011;51265;53.972;12.286;2024-01-11T12:27:01;5.28;;;3.30;;
64826;SDS011;51265;53.972;12.286;2024-01-11T12:29:28;8.80;;;4.05;;
64826;SDS011;51265;53.972;12.286;2024-01-11T12:31:56;9.10;;;4.22;;
64826;SDS011;51265;53.972;12.286;2024-01-11T12:34:24;5.05;;;3.28;;
64826;SDS011;51265;53.972;12.286;2024-01-11T12:36:54;7.40;;;3.35;;
64826;SDS011;51265;53.972;12.286;2024-01-11T12:39:24;6.85;;;3.67;;
64826;SDS011;51265;53.972;12.286;2024-01-11T12:41:50;7.00;;;4.30;;
64826;SDS011;51265;53.972;12.286;2024-01-11T12:44:19;5.50;;;3.60;;
64826;SDS011;51265;53.972;12.286;2024-01-11T12:46:49;6.72;;;3.38;;
64826;SDS011;51265;53.972;12.286;2024-01-11T12:49:16;4.85;;;3.60;;
64826;SDS011;51265;53.972;12.286;2024-01-11T12:51:43;6.63;;;3.85;;
64826;SDS011;51265;53.972;12.286;2024-01-11T12:54:12;11.25;;;3.72;;
64826;SDS011;51265;53.972;12.286;2024-01-11T12:56:40;6.50;;;3.63;;
64826;SDS011;51265;53.972;12.286;2024-01-11T12:59:09;6.45;;;3.67;;
64826;SDS011;51265;53.972;12.286;2024-01-11T13:01:36;5.47;;;3.88;;
64826;SDS011;51265;53.972;12.286;2024-01-11T13:04:04;5.38;;;3.20;;
64826;SDS011;51265;53.972;12.286;2024-01-11T13:06:30;6.65;;;3.53;;
64826;SDS011;51265;53.972;12.286;2024-01-11T13:08:57;4.82;;;3.20;;
64826;SDS011;51265;53.972;12.286;2024-01-11T13:11:23;6.10;;;3.30;;
64826;SDS011;51265;53.972;12.286;2024-01-11T13:13:50;7.72;;;3.50;;
64826;SDS011;51265;53.972;12.286;2024-01-11T13:16:17;7.65;;;3.90;;
64826;SDS011;51265;53.972;12.286;2024-01-11T13:18:45;5.75;;;4.05;;
64826;SDS011;51265;53.972;12.286;2024-01-11T13:21:11;4.82;;;3.38;;
64826;SDS011;51265;53.972;12.286;2024-01-11T13:23:40;8.57;;;3.80;;
64826;SDS011;51265;53.972;12.286;2024-01-11T13:26:07;7.18;;;3.45;;
64826;SDS011;51265;53.972;12.286;2024-01-11T13:28:34;7.65;;;3.80;;
64826;SDS011;51265;53.972;12.286;2024-01-11T13:31:00;14.07;;;3.90;;
64826;SDS011;51265;53.972;12.286;2024-01-11T13:33:28;6.03;;;3.55;;
64826;SDS011;51265;53.972;12.286;2024-01-11T13:35:54;7.00;;;3.60;;
64826;SDS011;51265;53.972;12.286;2024-01-11T13:38:20;6.35;;;3.33;;
64826;SDS011;51265;53.972;12.286;2024-01-11T13:40:47;7.88;;;3.80;;
64826;SDS011;51265;53.972;12.286;2024-01-11T13:43:13;7.95;;;3.70;;
64826;SDS011;51265;53.972;12.286;2024-01-11T13:45:39;6.15;;;3.47;;
64826;SDS011;51265;53.972;12.286;2024-01-11T13:48:06;6.35;;;3.50;;
64826;SDS011;51265;53.972;12.286;2024-01-11T13:50:32;7.82;;;3.60;;
64826;SDS011;51265;53.972;12.286;2024-01-11T13:52:59;8.00;;;3.97;;
64826;SDS011;51265;53.972;12.286;2024-01-11T13:55:26;6.43;;;3.42;;
64826;SDS011;51265;53.972;12.286;2024-01-11T13:57:52;7.57;;;3.40;;
64826;SDS011;51265;53.972;12.286;2024-01-11T14:00:19;8.70;;;3.72;;
64826;SDS011;51265;53.972;12.286;2024-01-11T14:02:46;8.25;;;3.70;;
64826;SDS011;51265;53.972;12.286;2024-01-11T14:05:12;7.57;;;4.30;;
64826;SDS011;51265;53.972;12.286;2024-01-11T14:07:41;14.13;;;4.25;;
64826;SDS011;51265;53.972;12.286;2024-01-11T14:10:08;10.30;;;4.25;;
64826;SDS011;51265;53.972;12.286;2024-01-11T14:12:35;7.00;;;4.00;;
64826;SDS011;51265;53.972;12.286;2024-01-11T14:15:03;7.35;;;3.80;;
64826;SDS011;51265;53.972;12.286;2024-01-11T14:17:31;7.70;;;4.15;;
64826;SDS011;51265;53.972;12.286;2024-01-11T14:19:59;9.27;;;3.88;;
64826;SDS011;51265;53.972;12.286;2024-01-11T14:22:26;8.65;;;4.60;;
64826;SDS011;51265;53.972;12.286;2024-01-11T14:24:53;6.78;;;3.95;;
64826;SDS011;51265;53.972;12.286;2024-01-11T14:27:19;8.90;;;4.50;;